Terminal Aerodrome Forecast
Issued by NWS

Current Version | Previous Version | Text Only | Print | Product List | Glossary Off
Versions: 1 2 3 4 5 6 7 8 9 10 11 12 13 14 15 16 17 18 19 20

000
FTUS41 KPBZ 291725
TAFHLG
TAF
KHLG 291725Z 2918/3018 19008KT P6SM -SHRA BKN070
     FM300300 13008KT P6SM -SHRA SCT020 BKN040
     FM300800 17004KT P6SM BKN015
     FM301400 21010KT P6SM BKN025=

USA.gov is the U.S. government's official web portal to all federal, state and local government web resources and services.